sensor_id;sensor_type;location;lat;lon;timestamp;P1;durP1;ratioP1;P2;durP2;ratioP2
49544;SDS011;74870;42.636;23.302;2024-02-21T00:01:36;5.47;;;4.97;;
49544;SDS011;74870;42.636;23.302;2024-02-21T00:04:01;4.70;;;4.30;;
49544;SDS011;74870;42.636;23.302;2024-02-21T00:06:27;4.13;;;3.83;;
49544;SDS011;74870;42.636;23.302;2024-02-21T00:08:52;3.80;;;3.60;;
49544;SDS011;74870;42.636;23.302;2024-02-21T00:11:18;3.83;;;3.53;;
49544;SDS011;74870;42.636;23.302;2024-02-21T00:13:43;3.50;;;3.30;;
49544;SDS011;74870;42.636;23.302;2024-02-21T00:16:08;3.63;;;3.40;;
49544;SDS011;74870;42.636;23.302;2024-02-21T00:18:35;4.37;;;3.97;;
49544;SDS011;74870;42.636;23.302;2024-02-21T00:21:01;3.80;;;3.50;;
49544;SDS011;74870;42.636;23.302;2024-02-21T00:23:27;3.67;;;3.47;;
49544;SDS011;74870;42.636;23.302;2024-02-21T00:25:53;3.60;;;3.40;;
49544;SDS011;74870;42.636;23.302;2024-02-21T00:28:18;3.70;;;3.50;;
49544;SDS011;74870;42.636;23.302;2024-02-21T00:30:44;3.40;;;3.20;;
49544;SDS011;74870;42.636;23.302;2024-02-21T00:33:09;3.50;;;3.30;;
49544;SDS011;74870;42.636;23.302;2024-02-21T00:35:35;3.67;;;3.43;;
49544;SDS011;74870;42.636;23.302;2024-02-21T00:38:00;4.00;;;3.70;;
49544;SDS011;74870;42.636;23.302;2024-02-21T00:40:25;4.30;;;4.00;;
49544;SDS011;74870;42.636;23.302;2024-02-21T00:42:51;5.60;;;5.10;;
49544;SDS011;74870;42.636;23.302;2024-02-21T00:45:16;5.00;;;4.60;;
49544;SDS011;74870;42.636;23.302;2024-02-21T00:47:42;7.50;;;6.73;;
49544;SDS011;74870;42.636;23.302;2024-02-21T00:50:07;8.77;;;7.83;;
49544;SDS011;74870;42.636;23.302;2024-02-21T00:52:34;9.40;;;7.87;;
49544;SDS011;74870;42.636;23.302;2024-02-21T00:54:59;8.67;;;7.77;;
49544;SDS011;74870;42.636;23.302;2024-02-21T00:57:25;7.07;;;6.37;;
49544;SDS011;74870;42.636;23.302;2024-02-21T00:59:51;7.00;;;6.30;;
49544;SDS011;74870;42.636;23.302;2024-02-21T01:02:16;5.03;;;4.63;;
49544;SDS011;74870;42.636;23.302;2024-02-21T01:04:41;5.07;;;4.67;;
49544;SDS011;74870;42.636;23.302;2024-02-21T01:07:07;4.80;;;4.40;;
49544;SDS011;74870;42.636;23.302;2024-02-21T01:09:32;4.87;;;4.43;;
49544;SDS011;74870;42.636;23.302;2024-02-21T01:11:57;5.30;;;4.90;;
49544;SDS011;74870;42.636;23.302;2024-02-21T01:14:23;5.73;;;5.27;;
49544;SDS011;74870;42.636;23.302;2024-02-21T01:16:48;5.53;;;5.03;;
49544;SDS011;74870;42.636;23.302;2024-02-21T01:19:14;5.80;;;5.30;;
49544;SDS011;74870;42.636;23.302;2024-02-21T01:21:39;7.47;;;6.77;;
49544;SDS011;74870;42.636;23.302;2024-02-21T01:24:04;8.57;;;7.77;;
49544;SDS011;74870;42.636;23.302;2024-02-21T01:26:30;6.33;;;5.40;;
49544;SDS011;74870;42.636;23.302;2024-02-21T01:28:55;6.47;;;5.87;;
49544;SDS011;74870;42.636;23.302;2024-02-21T01:31:20;6.73;;;6.13;;
49544;SDS011;74870;42.636;23.302;2024-02-21T01:33:46;7.13;;;6.43;;
49544;SDS011;74870;42.636;23.302;2024-02-21T01:36:11;7.20;;;6.50;;
49544;SDS011;74870;42.636;23.302;2024-02-21T01:38:37;7.30;;;6.60;;
49544;SDS011;74870;42.636;23.302;2024-02-21T01:41:02;8.10;;;7.30;;
49544;SDS011;74870;42.636;23.302;2024-02-21T01:43:27;8.07;;;7.27;;
49544;SDS011;74870;42.636;23.302;2024-02-21T01:45:54;9.17;;;8.27;;
49544;SDS011;74870;42.636;23.302;2024-02-21T01:48:21;8.50;;;7.60;;
49544;SDS011;74870;42.636;23.302;2024-02-21T01:50:48;8.30;;;7.50;;
49544;SDS011;74870;42.636;23.302;2024-02-21T01:53:21;9.03;;;8.13;;
49544;SDS011;74870;42.636;23.302;2024-02-21T01:55:48;9.30;;;8.50;;
49544;SDS011;74870;42.636;23.302;2024-02-21T01:58:14;10.00;;;8.57;;
49544;SDS011;74870;42.636;23.302;2024-02-21T02:00:44;10.00;;;8.93;;
49544;SDS011;74870;42.636;23.302;2024-02-21T02:03:11;10.20;;;9.20;;
49544;SDS011;74870;42.636;23.302;2024-02-21T02:05:44;9.30;;;8.40;;
49544;SDS011;74870;42.636;23.302;2024-02-21T02:08:11;10.33;;;9.23;;
49544;SDS011;74870;42.636;23.302;2024-02-21T02:10:37;10.00;;;9.10;;
49544;SDS011;74870;42.636;23.302;2024-02-21T02:13:04;10.20;;;9.20;;
49544;SDS011;74870;42.636;23.302;2024-02-21T02:15:50;11.60;;;9.93;;
49544;SDS011;74870;42.636;23.302;2024-02-21T02:18:15;10.70;;;9.57;;
49544;SDS011;74870;42.636;23.302;2024-02-21T02:20:41;10.93;;;9.83;;
49544;SDS011;74870;42.636;23.302;2024-02-21T02:25:48;11.10;;;9.80;;
49544;SDS011;74870;42.636;23.302;2024-02-21T02:28:18;11.80;;;10.03;;
49544;SDS011;74870;42.636;23.302;2024-02-21T02:30:44;10.87;;;9.73;;
49544;SDS011;74870;42.636;23.302;2024-02-21T02:33:10;11.50;;;10.30;;
49544;SDS011;74870;42.636;23.302;2024-02-21T02:35:35;11.70;;;10.53;;
49544;SDS011;74870;42.636;23.302;2024-02-21T02:38:01;11.20;;;10.10;;
49544;SDS011;74870;42.636;23.302;2024-02-21T02:40:27;11.27;;;10.10;;
49544;SDS011;74870;42.636;23.302;2024-02-21T02:42:53;12.03;;;10.83;;
49544;SDS011;74870;42.636;23.302;2024-02-21T02:45:20;11.43;;;10.23;;
49544;SDS011;74870;42.636;23.302;2024-02-21T02:47:47;11.17;;;10.07;;
49544;SDS011;74870;42.636;23.302;2024-02-21T02:50:13;10.63;;;9.53;;
49544;SDS011;74870;42.636;23.302;2024-02-21T02:52:38;10.47;;;9.40;;
49544;SDS011;74870;42.636;23.302;2024-02-21T02:55:04;11.70;;;10.57;;
49544;SDS011;74870;42.636;23.302;2024-02-21T02:57:30;11.30;;;10.13;;
49544;SDS011;74870;42.636;23.302;2024-02-21T02:59:56;11.07;;;9.97;;
49544;SDS011;74870;42.636;23.302;2024-02-21T03:02:21;10.77;;;9.67;;
49544;SDS011;74870;42.636;23.302;2024-02-21T03:04:48;11.30;;;10.10;;
49544;SDS011;74870;42.636;23.302;2024-02-21T03:07:14;10.40;;;9.40;;
49544;SDS011;74870;42.636;23.302;2024-02-21T03:09:40;11.47;;;10.27;;
49544;SDS011;74870;42.636;23.302;2024-02-21T03:12:07;12.67;;;11.37;;
49544;SDS011;74870;42.636;23.302;2024-02-21T03:14:33;12.70;;;11.30;;
49544;SDS011;74870;42.636;23.302;2024-02-21T03:16:59;12.80;;;11.50;;
49544;SDS011;74870;42.636;23.302;2024-02-21T03:19:24;12.80;;;10.93;;
49544;SDS011;74870;42.636;23.302;2024-02-21T03:21:51;12.77;;;11.43;;
49544;SDS011;74870;42.636;23.302;2024-02-21T03:24:17;12.70;;;11.40;;
49544;SDS011;74870;42.636;23.302;2024-02-21T03:26:43;12.63;;;11.43;;
49544;SDS011;74870;42.636;23.302;2024-02-21T03:29:09;13.27;;;11.97;;
49544;SDS011;74870;42.636;23.302;2024-02-21T03:31:35;12.17;;;10.93;;
49544;SDS011;74870;42.636;23.302;2024-02-21T03:34:00;20.87;;;15.67;;
49544;SDS011;74870;42.636;23.302;2024-02-21T03:36:26;13.23;;;11.50;;
49544;SDS011;74870;42.636;23.302;2024-02-21T03:38:51;12.70;;;11.40;;
49544;SDS011;74870;42.636;23.302;2024-02-21T03:41:17;11.50;;;10.30;;
49544;SDS011;74870;42.636;23.302;2024-02-21T03:43:42;13.10;;;11.70;;
49544;SDS011;74870;42.636;23.302;2024-02-21T03:46:08;11.37;;;10.27;;
49544;SDS011;74870;42.636;23.302;2024-02-21T03:48:33;11.57;;;10.37;;
49544;SDS011;74870;42.636;23.302;2024-02-21T03:50:58;11.80;;;10.60;;
49544;SDS011;74870;42.636;23.302;2024-02-21T03:53:24;12.00;;;10.70;;
49544;SDS011;74870;42.636;23.302;2024-02-21T03:55:49;12.30;;;11.10;;
49544;SDS011;74870;42.636;23.302;2024-02-21T03:58:14;11.53;;;10.33;;
49544;SDS011;74870;42.636;23.302;2024-02-21T04:00:40;13.57;;;11.80;;
49544;SDS011;74870;42.636;23.302;2024-02-21T04:03:06;12.73;;;11.30;;
49544;SDS011;74870;42.636;23.302;2024-02-21T04:05:31;13.67;;;12.17;;
49544;SDS011;74870;42.636;23.302;2024-02-21T04:07:57;14.10;;;12.53;;
49544;SDS011;74870;42.636;23.302;2024-02-21T04:10:22;13.63;;;12.23;;
49544;SDS011;74870;42.636;23.302;2024-02-21T04:12:47;14.60;;;12.90;;
49544;SDS011;74870;42.636;23.302;2024-02-21T04:15:15;14.10;;;12.60;;
49544;SDS011;74870;42.636;23.302;2024-02-21T04:17:44;15.47;;;13.20;;
49544;SDS011;74870;42.636;23.302;2024-02-21T04:20:14;14.80;;;12.93;;
49544;SDS011;74870;42.636;23.302;2024-02-21T04:22:40;17.63;;;14.67;;
49544;SDS011;74870;42.636;23.302;2024-02-21T04:25:07;15.23;;;13.60;;
49544;SDS011;74870;42.636;23.302;2024-02-21T04:27:33;13.83;;;12.10;;
49544;SDS011;74870;42.636;23.302;2024-02-21T04:29:58;15.47;;;13.33;;
49544;SDS011;74870;42.636;23.302;2024-02-21T04:32:24;46.70;;;25.33;;
49544;SDS011;74870;42.636;23.302;2024-02-21T04:34:49;17.93;;;14.87;;
49544;SDS011;74870;42.636;23.302;2024-02-21T04:37:14;13.80;;;12.10;;
49544;SDS011;74870;42.636;23.302;2024-02-21T04:39:40;13.53;;;12.10;;
49544;SDS011;74870;42.636;23.302;2024-02-21T04:42:05;12.53;;;11.10;;
49544;SDS011;74870;42.636;23.302;2024-02-21T04:44:31;15.13;;;12.30;;
49544;SDS011;74870;42.636;23.302;2024-02-21T04:46:56;15.70;;;13.93;;
49544;SDS011;74870;42.636;23.302;2024-02-21T04:49:22;18.33;;;14.63;;
49544;SDS011;74870;42.636;23.302;2024-02-21T04:51:47;16.17;;;13.60;;
49544;SDS011;74870;42.636;23.302;2024-02-21T04:54:12;16.43;;;13.23;;
49544;SDS011;74870;42.636;23.302;2024-02-21T04:56:38;15.60;;;13.07;;
49544;SDS011;74870;42.636;23.302;2024-02-21T04:59:03;19.73;;;16.63;;
49544;SDS011;74870;42.636;23.302;2024-02-21T05:01:29;18.50;;;14.97;;
49544;SDS011;74870;42.636;23.302;2024-02-21T05:03:54;13.73;;;12.23;;
49544;SDS011;74870;42.636;23.302;2024-02-21T05:06:19;13.13;;;11.73;;
49544;SDS011;74870;42.636;23.302;2024-02-21T05:08:45;11.87;;;10.67;;
49544;SDS011;74870;42.636;23.302;2024-02-21T05:11:10;11.60;;;10.40;;
49544;SDS011;74870;42.636;23.302;2024-02-21T05:13:36;12.30;;;11.00;;
49544;SDS011;74870;42.636;23.302;2024-02-21T05:16:01;10.83;;;9.73;;
49544;SDS011;74870;42.636;23.302;2024-02-21T05:18:27;11.60;;;10.33;;
49544;SDS011;74870;42.636;23.302;2024-02-21T05:20:53;11.47;;;10.27;;
49544;SDS011;74870;42.636;23.302;2024-02-21T05:23:18;12.60;;;11.40;;
49544;SDS011;74870;42.636;23.302;2024-02-21T05:25:44;12.00;;;10.80;;
49544;SDS011;74870;42.636;23.302;2024-02-21T05:28:09;15.60;;;12.80;;
49544;SDS011;74870;42.636;23.302;2024-02-21T05:30:35;15.07;;;13.50;;
49544;SDS011;74870;42.636;23.302;2024-02-21T05:33:04;12.43;;;11.13;;
49544;SDS011;74870;42.636;23.302;2024-02-21T05:35:30;12.47;;;11.17;;
49544;SDS011;74870;42.636;23.302;2024-02-21T05:37:56;12.27;;;10.97;;
49544;SDS011;74870;42.636;23.302;2024-02-21T05:40:21;11.60;;;10.40;;
49544;SDS011;74870;42.636;23.302;2024-02-21T05:42:46;11.67;;;10.47;;
49544;SDS011;74870;42.636;23.302;2024-02-21T05:45:12;11.97;;;10.77;;
49544;SDS011;74870;42.636;23.302;2024-02-21T05:47:38;12.30;;;11.00;;
49544;SDS011;74870;42.636;23.302;2024-02-21T05:50:03;12.07;;;10.87;;
49544;SDS011;74870;42.636;23.302;2024-02-21T05:52:29;11.70;;;10.50;;
49544;SDS011;74870;42.636;23.302;2024-02-21T05:54:55;11.70;;;10.50;;
49544;SDS011;74870;42.636;23.302;2024-02-21T05:57:21;12.07;;;10.83;;
49544;SDS011;74870;42.636;23.302;2024-02-21T05:59:46;11.80;;;10.60;;
49544;SDS011;74870;42.636;23.302;2024-02-21T06:02:12;11.57;;;10.33;;
49544;SDS011;74870;42.636;23.302;2024-02-21T06:04:50;12.87;;;11.27;;
49544;SDS011;74870;42.636;23.302;2024-02-21T06:07:18;12.10;;;10.80;;
49544;SDS011;74870;42.636;23.302;2024-02-21T06:10:09;12.30;;;11.00;;
49544;SDS011;74870;42.636;23.302;2024-02-21T06:12:34;12.77;;;11.47;;
49544;SDS011;74870;42.636;23.302;2024-02-21T06:15:00;12.87;;;11.50;;
49544;SDS011;74870;42.636;23.302;2024-02-21T06:17:25;13.93;;;11.87;;
49544;SDS011;74870;42.636;23.302;2024-02-21T06:19:51;12.57;;;11.17;;
49544;SDS011;74870;42.636;23.302;2024-02-21T06:22:16;12.97;;;11.23;;
49544;SDS011;74870;42.636;23.302;2024-02-21T06:24:43;14.67;;;12.30;;
49544;SDS011;74870;42.636;23.302;2024-02-21T06:27:08;14.10;;;12.07;;
49544;SDS011;74870;42.636;23.302;2024-02-21T06:29:35;13.63;;;12.17;;
49544;SDS011;74870;42.636;23.302;2024-02-21T06:32:01;14.37;;;12.43;;
49544;SDS011;74870;42.636;23.302;2024-02-21T06:34:26;13.40;;;11.83;;
49544;SDS011;74870;42.636;23.302;2024-02-21T06:36:52;14.23;;;12.67;;
49544;SDS011;74870;42.636;23.302;2024-02-21T06:39:17;13.70;;;11.93;;
49544;SDS011;74870;42.636;23.302;2024-02-21T06:41:43;14.40;;;12.90;;
49544;SDS011;74870;42.636;23.302;2024-02-21T06:44:08;13.50;;;12.10;;
49544;SDS011;74870;42.636;23.302;2024-02-21T06:46:34;15.13;;;12.90;;
49544;SDS011;74870;42.636;23.302;2024-02-21T06:49:00;14.43;;;12.93;;
49544;SDS011;74870;42.636;23.302;2024-02-21T06:51:26;14.43;;;12.93;;
49544;SDS011;74870;42.636;23.302;2024-02-21T06:53:55;14.27;;;12.77;;
49544;SDS011;74870;42.636;23.302;2024-02-21T06:56:22;14.23;;;12.33;;
49544;SDS011;74870;42.636;23.302;2024-02-21T06:58:51;13.80;;;12.30;;
49544;SDS011;74870;42.636;23.302;2024-02-21T07:01:17;15.40;;;13.17;;
49544;SDS011;74870;42.636;23.302;2024-02-21T07:03:42;14.60;;;13.07;;
49544;SDS011;74870;42.636;23.302;2024-02-21T07:06:08;14.37;;;12.97;;
49544;SDS011;74870;42.636;23.302;2024-02-21T07:08:33;16.47;;;12.67;;
49544;SDS011;74870;42.636;23.302;2024-02-21T07:10:59;15.33;;;12.43;;
49544;SDS011;74870;42.636;23.302;2024-02-21T07:13:24;14.87;;;13.23;;
49544;SDS011;74870;42.636;23.302;2024-02-21T07:15:49;14.57;;;12.70;;
49544;SDS011;74870;42.636;23.302;2024-02-21T07:18:15;13.53;;;12.10;;
49544;SDS011;74870;42.636;23.302;2024-02-21T07:20:40;14.50;;;13.00;;
49544;SDS011;74870;42.636;23.302;2024-02-21T07:23:06;13.93;;;12.43;;
49544;SDS011;74870;42.636;23.302;2024-02-21T07:25:32;14.27;;;12.47;;
49544;SDS011;74870;42.636;23.302;2024-02-21T07:27:57;15.83;;;13.10;;
49544;SDS011;74870;42.636;23.302;2024-02-21T07:30:23;13.93;;;12.40;;
49544;SDS011;74870;42.636;23.302;2024-02-21T07:32:49;14.50;;;12.90;;
49544;SDS011;74870;42.636;23.302;2024-02-21T07:35:15;15.97;;;13.63;;
49544;SDS011;74870;42.636;23.302;2024-02-21T07:37:41;14.47;;;12.83;;
49544;SDS011;74870;42.636;23.302;2024-02-21T07:40:06;14.47;;;12.60;;
49544;SDS011;74870;42.636;23.302;2024-02-21T07:42:38;14.23;;;12.73;;
49544;SDS011;74870;42.636;23.302;2024-02-21T07:45:03;14.63;;;12.53;;
49544;SDS011;74870;42.636;23.302;2024-02-21T07:47:29;15.77;;;12.37;;
49544;SDS011;74870;42.636;23.302;2024-02-21T07:49:54;17.43;;;14.00;;
49544;SDS011;74870;42.636;23.302;2024-02-21T07:52:19;15.13;;;13.43;;
49544;SDS011;74870;42.636;23.302;2024-02-21T07:54:45;15.90;;;13.70;;
49544;SDS011;74870;42.636;23.302;2024-02-21T07:57:10;15.17;;;13.57;;
49544;SDS011;74870;42.636;23.302;2024-02-21T07:59:36;15.47;;;13.87;;
49544;SDS011;74870;42.636;23.302;2024-02-21T08:02:01;15.93;;;12.80;;
49544;SDS011;74870;42.636;23.302;2024-02-21T08:04:27;15.20;;;13.00;;
49544;SDS011;74870;42.636;23.302;2024-02-21T08:06:53;15.67;;;13.20;;
49544;SDS011;74870;42.636;23.302;2024-02-21T08:09:19;15.10;;;13.33;;
49544;SDS011;74870;42.636;23.302;2024-02-21T08:11:44;15.73;;;13.13;;
49544;SDS011;74870;42.636;23.302;2024-02-21T08:14:10;14.67;;;13.03;;
49544;SDS011;74870;42.636;23.302;2024-02-21T08:16:35;15.33;;;13.73;;
49544;SDS011;74870;42.636;23.302;2024-02-21T08:19:00;15.37;;;12.87;;
49544;SDS011;74870;42.636;23.302;2024-02-21T08:21:28;14.20;;;12.70;;
49544;SDS011;74870;42.636;23.302;2024-02-21T08:23:53;14.47;;;13.07;;
49544;SDS011;74870;42.636;23.302;2024-02-21T08:26:19;13.83;;;12.33;;
49544;SDS011;74870;42.636;23.302;2024-02-21T08:28:44;13.13;;;11.73;;
49544;SDS011;74870;42.636;23.302;2024-02-21T08:31:10;13.60;;;12.10;;
49544;SDS011;74870;42.636;23.302;2024-02-21T08:33:35;14.60;;;12.33;;
49544;SDS011;74870;42.636;23.302;2024-02-21T08:36:01;13.67;;;11.73;;
49544;SDS011;74870;42.636;23.302;2024-02-21T08:38:26;11.67;;;10.57;;
49544;SDS011;74870;42.636;23.302;2024-02-21T08:40:51;10.93;;;9.83;;
49544;SDS011;74870;42.636;23.302;2024-02-21T08:43:17;10.37;;;9.43;;
49544;SDS011;74870;42.636;23.302;2024-02-21T08:45:42;9.00;;;8.10;;
49544;SDS011;74870;42.636;23.302;2024-02-21T08:48:08;9.43;;;8.53;;
49544;SDS011;74870;42.636;23.302;2024-02-21T08:50:33;9.60;;;8.70;;
49544;SDS011;74870;42.636;23.302;2024-02-21T08:52:58;10.43;;;9.30;;
49544;SDS011;74870;42.636;23.302;2024-02-21T08:55:24;9.87;;;8.97;;
49544;SDS011;74870;42.636;23.302;2024-02-21T08:57:49;9.90;;;9.00;;
49544;SDS011;74870;42.636;23.302;2024-02-21T09:00:15;10.37;;;9.37;;
49544;SDS011;74870;42.636;23.302;2024-02-21T09:02:41;10.30;;;9.23;;
49544;SDS011;74870;42.636;23.302;2024-02-21T09:05:10;10.83;;;9.70;;
49544;SDS011;74870;42.636;23.302;2024-02-21T09:07:36;10.83;;;9.73;;
49544;SDS011;74870;42.636;23.302;2024-02-21T09:10:01;11.10;;;10.00;;
49544;SDS011;74870;42.636;23.302;2024-02-21T09:12:27;10.90;;;9.90;;
49544;SDS011;74870;42.636;23.302;2024-02-21T09:14:53;10.47;;;9.47;;
49544;SDS011;74870;42.636;23.302;2024-02-21T09:17:18;10.70;;;9.60;;
49544;SDS011;74870;42.636;23.302;2024-02-21T09:19:45;11.23;;;10.00;;
49544;SDS011;74870;42.636;23.302;2024-02-21T09:22:12;10.00;;;9.10;;
49544;SDS011;74870;42.636;23.302;2024-02-21T09:24:37;10.57;;;9.57;;
49544;SDS011;74870;42.636;23.302;2024-02-21T09:27:02;11.97;;;10.20;;
49544;SDS011;74870;42.636;23.302;2024-02-21T09:29:28;10.67;;;9.67;;
49544;SDS011;74870;42.636;23.302;2024-02-21T09:31:53;10.23;;;9.23;;
49544;SDS011;74870;42.636;23.302;2024-02-21T09:34:19;9.57;;;8.63;;
49544;SDS011;74870;42.636;23.302;2024-02-21T09:36:44;9.10;;;8.30;;
49544;SDS011;74870;42.636;23.302;2024-02-21T09:39:09;10.93;;;9.87;;
49544;SDS011;74870;42.636;23.302;2024-02-21T09:41:39;10.60;;;9.60;;
49544;SDS011;74870;42.636;23.302;2024-02-21T09:44:10;9.47;;;8.50;;
49544;SDS011;74870;42.636;23.302;2024-02-21T09:47:14;8.90;;;8.10;;
49544;SDS011;74870;42.636;23.302;2024-02-21T09:49:39;9.13;;;8.17;;
49544;SDS011;74870;42.636;23.302;2024-02-21T09:52:06;9.70;;;8.57;;
49544;SDS011;74870;42.636;23.302;2024-02-21T09:54:32;8.90;;;8.00;;
49544;SDS011;74870;42.636;23.302;2024-02-21T09:57:02;8.70;;;7.90;;
49544;SDS011;74870;42.636;23.302;2024-02-21T09:59:31;11.20;;;10.10;;
49544;SDS011;74870;42.636;23.302;2024-02-21T10:01:58;11.70;;;10.50;;
49544;SDS011;74870;42.636;23.302;2024-02-21T10:04:27;11.77;;;10.60;;
49544;SDS011;74870;42.636;23.302;2024-02-21T10:06:53;10.07;;;9.13;;
49544;SDS011;74870;42.636;23.302;2024-02-21T10:09:28;10.63;;;9.53;;
49544;SDS011;74870;42.636;23.302;2024-02-21T10:11:54;10.57;;;9.60;;
49544;SDS011;74870;42.636;23.302;2024-02-21T10:14:32;8.10;;;7.40;;
49544;SDS011;74870;42.636;23.302;2024-02-21T10:16:58;8.37;;;7.50;;
49544;SDS011;74870;42.636;23.302;2024-02-21T10:19:27;8.30;;;7.60;;
49544;SDS011;74870;42.636;23.302;2024-02-21T10:22:03;7.60;;;6.90;;
49544;SDS011;74870;42.636;23.302;2024-02-21T10:24:33;7.30;;;6.70;;
49544;SDS011;74870;42.636;23.302;2024-02-21T10:27:03;7.53;;;6.93;;
49544;SDS011;74870;42.636;23.302;2024-02-21T10:29:33;7.53;;;6.90;;
49544;SDS011;74870;42.636;23.302;2024-02-21T10:32:08;7.20;;;6.60;;
49544;SDS011;74870;42.636;23.302;2024-02-21T10:34:41;7.43;;;6.83;;
49544;SDS011;74870;42.636;23.302;2024-02-21T10:37:10;7.63;;;6.93;;
49544;SDS011;74870;42.636;23.302;2024-02-21T10:39:37;7.40;;;6.80;;
49544;SDS011;74870;42.636;23.302;2024-02-21T10:42:04;8.23;;;7.47;;
49544;SDS011;74870;42.636;23.302;2024-02-21T10:44:30;7.93;;;7.03;;
49544;SDS011;74870;42.636;23.302;2024-02-21T10:46:57;7.20;;;6.60;;
49544;SDS011;74870;42.636;23.302;2024-02-21T10:49:23;6.67;;;6.17;;
49544;SDS011;74870;42.636;23.302;2024-02-21T10:51:50;6.97;;;6.27;;
49544;SDS011;74870;42.636;23.302;2024-02-21T10:54:39;6.97;;;6.37;;
49544;SDS011;74870;42.636;23.302;2024-02-21T10:57:25;6.30;;;5.80;;
49544;SDS011;74870;42.636;23.302;2024-02-21T10:59:52;7.80;;;7.00;;
49544;SDS011;74870;42.636;23.302;2024-02-21T11:02:19;7.70;;;7.10;;
49544;SDS011;74870;42.636;23.302;2024-02-21T11:04:45;6.80;;;6.30;;
49544;SDS011;74870;42.636;23.302;2024-02-21T11:07:12;6.07;;;5.57;;
49544;SDS011;74870;42.636;23.302;2024-02-21T11:09:39;5.90;;;5.40;;
49544;SDS011;74870;42.636;23.302;2024-02-21T11:12:05;6.33;;;5.83;;
49544;SDS011;74870;42.636;23.302;2024-02-21T11:14:31;5.93;;;5.47;;
49544;SDS011;74870;42.636;23.302;2024-02-21T11:16:57;5.50;;;5.07;;
49544;SDS011;74870;42.636;23.302;2024-02-21T11:19:26;5.70;;;5.30;;
49544;SDS011;74870;42.636;23.302;2024-02-21T11:21:53;7.03;;;6.43;;
49544;SDS011;74870;42.636;23.302;2024-02-21T11:24:26;6.93;;;6.40;;
49544;SDS011;74870;42.636;23.302;2024-02-21T11:26:56;6.10;;;5.60;;
49544;SDS011;74870;42.636;23.302;2024-02-21T11:29:32;5.90;;;5.40;;
49544;SDS011;74870;42.636;23.302;2024-02-21T11:31:57;5.70;;;5.20;;
49544;SDS011;74870;42.636;23.302;2024-02-21T11:34:23;6.50;;;6.00;;
49544;SDS011;74870;42.636;23.302;2024-02-21T11:39:18;5.83;;;5.33;;
49544;SDS011;74870;42.636;23.302;2024-02-21T11:42:05;5.10;;;4.70;;
49544;SDS011;74870;42.636;23.302;2024-02-21T11:44:35;4.80;;;4.37;;
49544;SDS011;74870;42.636;23.302;2024-02-21T11:47:08;4.00;;;3.70;;
49544;SDS011;74870;42.636;23.302;2024-02-21T11:49:37;4.83;;;4.53;;
49544;SDS011;74870;42.636;23.302;2024-02-21T11:52:06;4.87;;;4.47;;
49544;SDS011;74870;42.636;23.302;2024-02-21T11:54:32;5.13;;;4.67;;
49544;SDS011;74870;42.636;23.302;2024-02-21T11:56:59;4.93;;;4.53;;
49544;SDS011;74870;42.636;23.302;2024-02-21T11:59:32;5.30;;;4.90;;
49544;SDS011;74870;42.636;23.302;2024-02-21T12:01:58;5.27;;;4.77;;
49544;SDS011;74870;42.636;23.302;2024-02-21T12:04:28;5.73;;;5.17;;
49544;SDS011;74870;42.636;23.302;2024-02-21T12:06:56;5.60;;;5.10;;
49544;SDS011;74870;42.636;23.302;2024-02-21T12:09:23;5.00;;;4.60;;
49544;SDS011;74870;42.636;23.302;2024-02-21T12:14:24;5.13;;;4.73;;
49544;SDS011;74870;42.636;23.302;2024-02-21T12:16:51;5.50;;;5.00;;
49544;SDS011;74870;42.636;23.302;2024-02-21T12:19:16;5.40;;;5.00;;
49544;SDS011;74870;42.636;23.302;2024-02-21T12:21:42;5.47;;;5.07;;
49544;SDS011;74870;42.636;23.302;2024-02-21T12:24:14;4.80;;;4.50;;
49544;SDS011;74870;42.636;23.302;2024-02-21T12:26:40;5.43;;;5.03;;
49544;SDS011;74870;42.636;23.302;2024-02-21T12:29:06;7.13;;;6.43;;
49544;SDS011;74870;42.636;23.302;2024-02-21T12:31:34;5.63;;;5.17;;
49544;SDS011;74870;42.636;23.302;2024-02-21T12:34:01;6.37;;;5.87;;
49544;SDS011;74870;42.636;23.302;2024-02-21T12:36:26;5.77;;;5.37;;
49544;SDS011;74870;42.636;23.302;2024-02-21T12:38:52;8.20;;;7.40;;
49544;SDS011;74870;42.636;23.302;2024-02-21T12:41:17;8.13;;;6.83;;
49544;SDS011;74870;42.636;23.302;2024-02-21T12:43:42;7.27;;;6.63;;
49544;SDS011;74870;42.636;23.302;2024-02-21T12:46:08;6.50;;;5.90;;
49544;SDS011;74870;42.636;23.302;2024-02-21T12:48:33;6.37;;;5.87;;
49544;SDS011;74870;42.636;23.302;2024-02-21T12:50:59;7.93;;;7.23;;
49544;SDS011;74870;42.636;23.302;2024-02-21T12:53:24;6.13;;;5.63;;
49544;SDS011;74870;42.636;23.302;2024-02-21T12:55:50;6.70;;;6.03;;
49544;SDS011;74870;42.636;23.302;2024-02-21T12:58:16;5.93;;;5.50;;
49544;SDS011;74870;42.636;23.302;2024-02-21T13:00:41;5.10;;;4.70;;
49544;SDS011;74870;42.636;23.302;2024-02-21T13:03:07;5.10;;;4.63;;
49544;SDS011;74870;42.636;23.302;2024-02-21T13:05:35;3.53;;;3.33;;
49544;SDS011;74870;42.636;23.302;2024-02-21T13:08:01;3.77;;;3.40;;
49544;SDS011;74870;42.636;23.302;2024-02-21T13:10:26;3.50;;;3.30;;
49544;SDS011;74870;42.636;23.302;2024-02-21T13:12:52;3.30;;;3.10;;
49544;SDS011;74870;42.636;23.302;2024-02-21T13:15:17;3.63;;;3.33;;
49544;SDS011;74870;42.636;23.302;2024-02-21T13:17:43;4.10;;;3.80;;
49544;SDS011;74870;42.636;23.302;2024-02-21T13:20:09;4.30;;;4.00;;
49544;SDS011;74870;42.636;23.302;2024-02-21T13:22:36;5.00;;;4.60;;
49544;SDS011;74870;42.636;23.302;2024-02-21T13:25:01;5.10;;;4.70;;
49544;SDS011;74870;42.636;23.302;2024-02-21T13:27:27;5.00;;;4.60;;
49544;SDS011;74870;42.636;23.302;2024-02-21T13:29:52;7.50;;;6.60;;
49544;SDS011;74870;42.636;23.302;2024-02-21T13:32:18;7.63;;;6.80;;
49544;SDS011;74870;42.636;23.302;2024-02-21T13:34:43;8.20;;;7.50;;
49544;SDS011;74870;42.636;23.302;2024-02-21T13:37:09;9.50;;;7.20;;
49544;SDS011;74870;42.636;23.302;2024-02-21T13:39:35;8.17;;;6.60;;
49544;SDS011;74870;42.636;23.302;2024-02-21T13:42:01;7.53;;;6.83;;
49544;SDS011;74870;42.636;23.302;2024-02-21T13:44:27;8.37;;;7.60;;
49544;SDS011;74870;42.636;23.302;2024-02-21T13:46:52;8.80;;;7.80;;
49544;SDS011;74870;42.636;23.302;2024-02-21T13:49:18;6.63;;;6.03;;
49544;SDS011;74870;42.636;23.302;2024-02-21T13:51:43;6.50;;;6.00;;
49544;SDS011;74870;42.636;23.302;2024-02-21T13:54:10;6.13;;;5.63;;
49544;SDS011;74870;42.636;23.302;2024-02-21T13:56:36;5.97;;;5.37;;
49544;SDS011;74870;42.636;23.302;2024-02-21T13:59:02;6.87;;;5.80;;
49544;SDS011;74870;42.636;23.302;2024-02-21T14:01:27;6.23;;;5.63;;
49544;SDS011;74870;42.636;23.302;2024-02-21T14:03:53;6.20;;;5.60;;
49544;SDS011;74870;42.636;23.302;2024-02-21T14:06:19;6.20;;;5.70;;
49544;SDS011;74870;42.636;23.302;2024-02-21T14:08:44;8.33;;;6.60;;
49544;SDS011;74870;42.636;23.302;2024-02-21T14:11:10;7.73;;;6.90;;
49544;SDS011;74870;42.636;23.302;2024-02-21T14:13:35;6.80;;;6.20;;
49544;SDS011;74870;42.636;23.302;2024-02-21T14:16:01;7.80;;;7.10;;
49544;SDS011;74870;42.636;23.302;2024-02-21T14:18:27;7.50;;;6.90;;
49544;SDS011;74870;42.636;23.302;2024-02-21T14:20:52;7.20;;;6.60;;
49544;SDS011;74870;42.636;23.302;2024-02-21T14:23:18;7.70;;;7.00;;
49544;SDS011;74870;42.636;23.302;2024-02-21T14:25:43;7.63;;;6.93;;